createdAt,value
2023-02-05T00:01:24.666Z,-1.63
2023-02-05T00:03:51.308Z,-1.56
2023-02-05T00:06:18.091Z,-1.58
2023-02-05T00:08:44.744Z,-1.55
2023-02-05T00:11:11.401Z,-1.56
2023-02-05T00:13:39.678Z,-1.55
2023-02-05T00:16:16.930Z,-1.57
2023-02-05T00:18:44.269Z,-1.56
2023-02-05T00:21:11.876Z,-1.57
2023-02-05T00:23:39.477Z,-1.57
2023-02-05T00:26:07.033Z,-1.59
2023-02-05T00:28:36.802Z,-1.64
2023-02-05T00:31:16.117Z,-1.64
2023-02-05T00:33:43.156Z,-1.71
2023-02-05T00:36:12.675Z,-1.75
2023-02-05T00:38:40.730Z,-1.76
2023-02-05T00:41:07.525Z,-1.71
2023-02-05T00:43:34.249Z,-1.72
2023-02-05T00:46:00.925Z,-1.71
2023-02-05T00:48:27.624Z,-1.77
2023-02-05T00:50:54.582Z,-1.76
2023-02-05T00:53:22.410Z,-1.75
2023-02-05T00:55:49.064Z,-1.81
2023-02-05T00:58:16.038Z,-1.81
2023-02-05T01:00:43.125Z,-1.82
2023-02-05T01:03:10.022Z,-1.85
2023-02-05T01:05:38.142Z,-1.92
2023-02-05T01:08:06.260Z,-1.91
2023-02-05T01:10:33.083Z,-1.96
2023-02-05T01:12:59.949Z,-1.99
2023-02-05T01:15:26.776Z,-1.99
2023-02-05T01:17:53.341Z,-1.99
2023-02-05T01:20:20.513Z,-1.96
2023-02-05T01:22:47.551Z,-1.99
2023-02-05T01:25:14.096Z,-1.95
2023-02-05T01:27:40.691Z,-2.00
2023-02-05T01:30:08.006Z,-2.03
2023-02-05T01:32:35.600Z,-2.00
2023-02-05T01:35:02.157Z,-2.00
2023-02-05T01:37:28.726Z,-1.96
2023-02-05T01:39:55.502Z,-1.99
2023-02-05T01:42:31.784Z,-1.96
2023-02-05T01:45:23.395Z,-1.98
2023-02-05T01:47:58.008Z,-1.96
2023-02-05T01:50:43.012Z,-1.95
2023-02-05T01:53:13.649Z,-1.99
2023-02-05T01:55:57.294Z,-1.99
2023-02-05T01:58:27.620Z,-2.04
2023-02-05T02:00:54.936Z,-2.04
2023-02-05T02:03:24.589Z,-2.08
2023-02-05T02:05:51.177Z,-2.13
2023-02-05T02:08:17.770Z,-2.13
2023-02-05T02:10:46.224Z,-2.19
2023-02-05T02:13:13.320Z,-2.19
2023-02-05T02:15:41.104Z,-2.23
2023-02-05T02:18:27.708Z,-2.22
2023-02-05T02:21:19.742Z,-2.27
2023-02-05T02:24:01.214Z,-2.28
2023-02-05T02:26:58.721Z,-2.34
2023-02-05T02:29:51.152Z,-2.33
2023-02-05T02:32:39.056Z,-2.32
2023-02-05T02:35:11.685Z,-2.36
2023-02-05T02:37:45.945Z,-2.40
2023-02-05T02:40:18.490Z,-2.44
2023-02-05T02:42:58.812Z,-2.37
2023-02-05T02:45:29.256Z,-2.37
2023-02-05T02:47:58.669Z,-2.38
2023-02-05T02:50:32.932Z,-2.37
2023-02-05T02:53:13.711Z,-2.39
2023-02-05T02:55:43.762Z,-2.42
2023-02-05T02:58:16.795Z,-2.37
2023-02-05T03:00:46.016Z,-2.34
2023-02-05T03:03:16.832Z,-2.39
2023-02-05T03:05:45.887Z,-2.38
2023-02-05T03:08:28.388Z,-2.37
2023-02-05T03:11:04.988Z,-2.39
2023-02-05T03:13:32.335Z,-2.43
2023-02-05T03:15:59.060Z,-2.44
2023-02-05T03:18:25.747Z,-2.46
2023-02-05T03:20:56.763Z,-2.43
2023-02-05T03:23:26.116Z,-2.37
2023-02-05T03:25:52.652Z,-2.33
2023-02-05T03:28:19.557Z,-2.34
2023-02-05T03:31:00.615Z,-2.29
2023-02-05T03:33:54.524Z,-2.27
2023-02-05T03:36:34.801Z,-2.24
2023-02-05T03:39:22.894Z,-2.21
2023-02-05T03:42:10.927Z,-2.20
2023-02-05T03:45:05.707Z,-2.19
2023-02-05T03:47:44.188Z,-2.16
2023-02-05T03:50:16.729Z,-2.10
2023-02-05T03:52:50.778Z,-2.13
2023-02-05T03:55:41.272Z,-2.18
2023-02-05T03:58:15.090Z,-2.13
2023-02-05T04:00:42.461Z,-2.12
2023-02-05T04:03:09.208Z,-2.08
2023-02-05T04:05:36.385Z,-2.08
2023-02-05T04:08:03.294Z,-2.08
2023-02-05T04:10:29.851Z,-2.03
2023-02-05T04:12:56.415Z,-1.99
2023-02-05T04:15:23.676Z,-1.97
2023-02-05T04:17:50.248Z,-1.94
2023-02-05T04:20:17.015Z,-1.92
2023-02-05T04:22:43.715Z,-1.91
2023-02-05T04:25:10.261Z,-1.91
2023-02-05T04:27:36.830Z,-1.91
2023-02-05T04:30:03.552Z,-1.93
2023-02-05T04:32:30.108Z,-1.94
2023-02-05T04:34:56.679Z,-1.93
2023-02-05T04:37:25.017Z,-1.92
2023-02-05T04:39:51.807Z,-1.90
2023-02-05T04:42:18.376Z,-1.84
2023-02-05T04:44:44.924Z,-1.81
2023-02-05T04:47:12.900Z,-1.82
2023-02-05T04:49:40.840Z,-1.83
2023-02-05T04:52:08.158Z,-1.85
2023-02-05T04:54:36.016Z,-1.88
2023-02-05T04:57:02.576Z,-1.90
2023-02-05T04:59:30.366Z,-1.91
2023-02-05T05:01:57.608Z,-1.92
2023-02-05T05:04:24.198Z,-1.94
2023-02-05T05:06:50.789Z,-1.97
2023-02-05T05:09:17.477Z,-1.99
2023-02-05T05:11:43.990Z,-2.02
2023-02-05T05:14:10.757Z,-2.03
2023-02-05T05:16:37.355Z,-2.03
2023-02-05T05:19:04.522Z,-2.00
2023-02-05T05:21:31.179Z,-1.98
2023-02-05T05:23:57.718Z,-1.99
2023-02-05T05:26:24.436Z,-1.99
2023-02-05T05:28:55.339Z,-1.98
2023-02-05T05:31:22.411Z,-2.00
2023-02-05T05:33:49.061Z,-2.05
2023-02-05T05:36:16.827Z,-2.08
2023-02-05T05:38:44.130Z,-2.10
2023-02-05T05:41:38.238Z,-2.12
2023-02-05T05:44:04.904Z,-2.15
2023-02-05T05:46:31.537Z,-2.20
2023-02-05T05:49:00.251Z,-2.23
2023-02-05T05:51:28.757Z,-2.22
2023-02-05T05:53:55.839Z,-2.22
2023-02-05T05:56:23.447Z,-2.24
2023-02-05T05:58:50.824Z,-2.25
2023-02-05T06:01:20.431Z,-2.22
2023-02-05T06:03:47.058Z,-2.20
2023-02-05T06:06:13.805Z,-2.17
2023-02-05T06:08:40.801Z,-2.13
2023-02-05T06:11:07.645Z,-2.10
2023-02-05T06:13:34.979Z,-2.07
2023-02-05T06:16:01.723Z,-2.03
2023-02-05T06:18:28.397Z,-2.04
2023-02-05T06:20:54.940Z,-2.03
2023-02-05T06:23:21.764Z,-2.02
2023-02-05T06:25:48.436Z,-2.02
2023-02-05T06:28:15.119Z,-2.02
2023-02-05T06:30:41.721Z,-1.98
2023-02-05T06:33:08.336Z,-1.95
2023-02-05T06:35:36.651Z,-1.91
2023-02-05T06:38:03.384Z,-1.89
2023-02-05T06:40:30.120Z,-1.83
2023-02-05T06:42:56.690Z,-1.82
2023-02-05T06:45:23.348Z,-1.80
2023-02-05T06:47:52.756Z,-1.75
2023-02-05T06:50:20.164Z,-1.73
2023-02-05T06:52:46.758Z,-1.70
2023-02-05T06:55:13.450Z,-1.67
2023-02-05T06:57:40.044Z,-1.67
2023-02-05T07:00:07.304Z,-1.64
2023-02-05T07:02:34.371Z,-1.65
2023-02-05T07:05:01.038Z,-1.65
2023-02-05T07:07:28.349Z,-1.63
2023-02-05T07:09:55.081Z,-1.66
2023-02-05T07:12:22.359Z,-1.66
2023-02-05T07:14:48.938Z,-1.68
2023-02-05T07:17:15.726Z,-1.66
2023-02-05T07:19:42.314Z,-1.66
2023-02-05T07:22:09.191Z,-1.68
2023-02-05T07:24:35.732Z,-1.72
2023-02-05T07:27:02.315Z,-1.73
2023-02-05T07:29:28.977Z,-1.73
2023-02-05T07:31:55.569Z,-1.71
2023-02-05T07:34:22.157Z,-1.72
2023-02-05T07:36:52.664Z,-1.68
2023-02-05T07:39:19.787Z,-1.60
2023-02-05T07:41:46.612Z,-1.56
2023-02-05T07:44:13.273Z,-1.52
2023-02-05T07:46:40.178Z,-1.56
2023-02-05T07:49:07.162Z,-1.58
2023-02-05T07:51:35.359Z,-1.59
2023-02-05T07:54:06.513Z,-1.64
2023-02-05T07:56:33.167Z,-1.65
2023-02-05T07:58:59.767Z,-1.74
2023-02-05T08:01:26.411Z,-1.83
2023-02-05T08:03:53.023Z,-1.80
2023-02-05T08:06:19.606Z,-1.73
2023-02-05T08:08:46.148Z,-1.60
2023-02-05T08:11:17.796Z,-1.44
2023-02-05T08:13:46.051Z,-1.29
2023-02-05T08:16:15.757Z,-1.19
2023-02-05T08:18:43.074Z,-1.05
2023-02-05T08:21:09.647Z,-0.92
2023-02-05T08:23:36.306Z,-0.76
2023-02-05T08:26:02.887Z,-0.57
2023-02-05T08:28:31.916Z,-0.41
2023-02-05T08:30:58.743Z,-0.26
2023-02-05T08:33:25.724Z,-0.07
2023-02-05T08:35:52.500Z,0.11
2023-02-05T08:38:19.057Z,0.19
2023-02-05T08:40:45.681Z,0.38
2023-02-05T08:43:12.340Z,0.58
2023-02-05T08:45:39.413Z,0.73
2023-02-05T08:48:06.134Z,0.90
2023-02-05T08:50:32.745Z,1.05
2023-02-05T08:52:59.279Z,1.25
2023-02-05T08:55:25.847Z,1.52
2023-02-05T08:57:52.996Z,1.84
2023-02-05T09:00:21.122Z,2.18
2023-02-05T09:02:47.713Z,2.47
2023-02-05T09:05:14.307Z,2.84
2023-02-05T09:07:41.642Z,3.18
2023-02-05T09:10:13.019Z,3.58
2023-02-05T09:12:40.036Z,4.07
2023-02-05T09:15:07.791Z,4.41
2023-02-05T09:17:34.469Z,4.86
2023-02-05T09:20:01.251Z,4.88
2023-02-05T09:22:27.814Z,5.26
2023-02-05T09:24:54.409Z,5.73
2023-02-05T09:27:20.996Z,6.03
2023-02-05T09:29:47.583Z,6.44
2023-02-05T09:32:14.267Z,6.07
2023-02-05T09:34:40.962Z,5.74
2023-02-05T09:37:07.511Z,5.14
2023-02-05T09:40:17.678Z,4.69
2023-02-05T09:42:40.498Z,4.08
2023-02-05T09:45:20.577Z,3.80
2023-02-05T09:47:57.956Z,3.29
2023-02-05T09:50:29.814Z,2.97
2023-02-05T09:53:01.803Z,2.79
2023-02-05T09:55:31.413Z,2.65
2023-02-05T09:58:06.408Z,2.71
2023-02-05T10:00:51.480Z,2.51
2023-02-05T10:03:17.870Z,2.47
2023-02-05T10:06:10.423Z,2.40
2023-02-05T10:08:51.908Z,2.42
2023-02-05T10:11:37.897Z,2.49
2023-02-05T10:14:31.356Z,2.43
2023-02-05T10:17:00.953Z,2.61
2023-02-05T10:19:40.420Z,2.64
2023-02-05T10:22:54.658Z,3.14
2023-02-05T10:25:33.721Z,3.81
2023-02-05T10:28:09.649Z,4.69
2023-02-05T10:30:36.213Z,5.68
2023-02-05T10:33:14.051Z,5.95
2023-02-05T10:35:56.326Z,5.58
2023-02-05T10:38:24.742Z,5.15
2023-02-05T10:41:00.227Z,4.52
2023-02-05T10:43:39.262Z,4.18
2023-02-05T10:46:12.298Z,4.02
2023-02-05T10:49:01.414Z,3.95
2023-02-05T10:51:42.238Z,4.32
2023-02-05T10:54:30.295Z,4.62
2023-02-05T10:56:59.103Z,4.48
2023-02-05T10:59:31.318Z,5.16
2023-02-05T11:02:03.800Z,6.02
2023-02-05T11:04:44.841Z,6.61
2023-02-05T11:07:14.622Z,6.37
2023-02-05T11:09:42.368Z,6.22
2023-02-05T11:12:29.249Z,7.12
2023-02-05T11:15:01.765Z,8.00
2023-02-05T11:17:33.821Z,8.12
2023-02-05T11:20:04.535Z,8.63
2023-02-05T11:22:35.236Z,9.49
2023-02-05T11:25:18.678Z,9.77
2023-02-05T11:28:04.951Z,10.44
2023-02-05T11:33:24.445Z,9.08
2023-02-05T11:35:53.918Z,8.57
2023-02-05T11:38:47.097Z,8.06
2023-02-05T11:41:26.597Z,8.44
2023-02-05T11:43:53.918Z,9.10
2023-02-05T11:46:27.932Z,8.79
2023-02-05T11:49:05.078Z,8.01
2023-02-05T11:51:45.820Z,6.98
2023-02-05T11:54:19.443Z,8.24
2023-02-05T11:57:24.982Z,9.54
2023-02-05T11:59:56.022Z,10.69
2023-02-05T12:02:28.783Z,10.62
2023-02-05T12:05:19.251Z,9.56
2023-02-05T12:07:52.498Z,9.07
2023-02-05T12:10:31.109Z,9.69
2023-02-05T12:13:24.490Z,10.52
2023-02-05T12:15:56.076Z,11.59
2023-02-05T12:18:37.983Z,11.94
2023-02-05T12:21:23.659Z,11.49
2023-02-05T12:24:05.372Z,12.31
2023-02-05T12:26:45.240Z,13.32
2023-02-05T12:29:45.028Z,14.29
2023-02-05T12:32:21.199Z,14.90
2023-02-05T12:35:12.717Z,14.35
2023-02-05T12:38:05.401Z,14.02
2023-02-05T12:40:50.646Z,14.54
2023-02-05T12:43:29.228Z,15.07
2023-02-05T12:45:58.720Z,15.19
2023-02-05T12:48:47.443Z,14.40
2023-02-05T12:51:35.301Z,13.73
2023-02-05T12:54:17.573Z,14.66
2023-02-05T12:56:59.339Z,13.93
2023-02-05T12:59:40.887Z,13.06
2023-02-05T13:02:16.171Z,12.50
2023-02-05T13:04:49.289Z,11.94
2023-02-05T13:07:30.716Z,11.95
2023-02-05T13:10:06.795Z,11.50
2023-02-05T13:12:38.485Z,10.40
2023-02-05T13:15:25.345Z,11.00
2023-02-05T13:18:22.423Z,10.97
2023-02-05T13:21:15.960Z,11.17
2023-02-05T13:24:03.482Z,12.19
2023-02-05T13:26:58.805Z,13.19
2023-02-05T13:29:30.337Z,13.62
2023-02-05T13:32:15.977Z,13.74
2023-02-05T13:34:43.216Z,14.20
2023-02-05T13:37:32.726Z,14.78
2023-02-05T13:40:17.344Z,14.87
2023-02-05T13:42:50.775Z,13.74
2023-02-05T13:45:52.631Z,14.27
2023-02-05T13:49:08.951Z,13.56
2023-02-05T13:51:38.958Z,14.19
2023-02-05T13:54:39.153Z,14.69
2023-02-05T13:57:27.551Z,15.10
2023-02-05T13:59:54.788Z,13.70
2023-02-05T14:02:38.206Z,12.90
2023-02-05T14:05:06.253Z,11.67
2023-02-05T14:07:46.744Z,10.97
2023-02-05T14:10:29.568Z,10.97
2023-02-05T14:13:16.302Z,11.38
2023-02-05T14:15:43.940Z,11.11
2023-02-05T14:18:12.802Z,10.68
2023-02-05T14:20:44.666Z,10.07
2023-02-05T14:23:16.981Z,10.79
2023-02-05T14:26:06.389Z,11.59
2023-02-05T14:28:34.592Z,11.79
2023-02-05T14:31:05.718Z,12.01
2023-02-05T14:33:43.523Z,12.78
2023-02-05T14:36:21.274Z,12.56
2023-02-05T14:39:03.653Z,12.04
2023-02-05T14:41:33.839Z,11.74
2023-02-05T14:44:04.379Z,11.74
2023-02-05T14:46:41.715Z,12.19
2023-02-05T14:49:23.362Z,12.68
2023-02-05T14:51:59.229Z,12.89
2023-02-05T14:54:30.081Z,12.97
2023-02-05T14:57:17.650Z,12.24
2023-02-05T14:59:50.029Z,11.72
2023-02-05T15:02:54.764Z,10.25
2023-02-05T15:05:46.813Z,9.73
2023-02-05T15:08:37.820Z,9.37
2023-02-05T15:11:33.520Z,9.10
2023-02-05T15:14:19.526Z,8.26
2023-02-05T15:17:11.528Z,7.60
2023-02-05T15:19:43.368Z,6.97
2023-02-05T15:22:30.728Z,6.66
2023-02-05T15:24:58.232Z,6.57
2023-02-05T15:27:41.400Z,6.80
2023-02-05T15:30:16.860Z,7.09
2023-02-05T15:32:52.977Z,6.77
2023-02-05T15:35:24.628Z,6.11
2023-02-05T15:38:04.005Z,5.88
2023-02-05T15:40:33.681Z,5.54
2023-02-05T15:43:09.552Z,4.91
2023-02-05T15:45:44.887Z,4.89
2023-02-05T15:48:13.603Z,4.60
2023-02-05T15:50:47.527Z,4.41
2023-02-05T15:53:35.250Z,4.24
2023-02-05T15:56:25.068Z,3.92
2023-02-05T15:58:55.186Z,3.66
2023-02-05T16:01:28.487Z,3.33
2023-02-05T16:03:55.214Z,3.16
2023-02-05T16:06:23.540Z,2.70
2023-02-05T16:08:52.602Z,2.75
2023-02-05T16:11:35.200Z,2.58
2023-02-05T16:14:16.509Z,2.38
2023-02-05T16:17:08.262Z,2.08
2023-02-05T16:19:53.726Z,1.70
2023-02-05T16:22:32.313Z,1.48
2023-02-05T16:25:03.331Z,1.29
2023-02-05T16:27:32.630Z,1.00
2023-02-05T16:30:07.365Z,0.88
2023-02-05T16:32:38.043Z,0.63
2023-02-05T16:35:07.898Z,0.53
2023-02-05T16:37:35.821Z,0.48
2023-02-05T16:40:06.716Z,0.35
2023-02-05T16:42:39.029Z,0.40
2023-02-05T16:45:08.509Z,0.34
2023-02-05T16:47:36.145Z,0.37
2023-02-05T16:50:42.586Z,0.33
2023-02-05T16:53:16.230Z,0.22
2023-02-05T16:55:44.022Z,0.06
2023-02-05T16:58:23.115Z,-0.05
2023-02-05T17:01:07.900Z,-0.19
2023-02-05T17:03:37.873Z,-0.23
2023-02-05T17:06:12.256Z,-0.28
2023-02-05T17:08:40.143Z,-0.32
2023-02-05T17:11:27.897Z,-0.35
2023-02-05T17:14:10.227Z,-0.36
2023-02-05T17:16:41.069Z,-0.38
2023-02-05T17:19:24.433Z,-0.41
2023-02-05T17:22:13.849Z,-0.41
2023-02-05T17:24:41.738Z,-0.56
2023-02-05T17:27:28.466Z,-0.52
2023-02-05T17:29:56.803Z,-0.66
2023-02-05T17:32:24.004Z,-0.74
2023-02-05T17:34:50.571Z,-0.80
2023-02-05T17:37:17.183Z,-0.86
2023-02-05T17:39:43.970Z,-0.85
2023-02-05T17:42:23.516Z,-0.82
2023-02-05T17:44:51.085Z,-0.83
2023-02-05T17:47:18.658Z,-0.86
2023-02-05T17:49:45.234Z,-0.96
2023-02-05T17:52:12.235Z,-1.03
2023-02-05T17:54:38.897Z,-1.06
2023-02-05T17:57:19.726Z,-1.14
2023-02-05T17:59:47.413Z,-1.15
2023-02-05T18:02:15.368Z,-1.20
2023-02-05T18:04:42.445Z,-1.20
2023-02-05T18:07:39.373Z,-1.26
2023-02-05T18:10:06.737Z,-1.25
2023-02-05T18:12:33.782Z,-1.25
2023-02-05T18:15:00.371Z,-1.37
2023-02-05T18:17:26.970Z,-1.46
2023-02-05T18:19:53.615Z,-1.49
2023-02-05T18:22:20.327Z,-1.53
2023-02-05T18:24:46.857Z,-1.54
2023-02-05T18:27:13.501Z,-1.66
2023-02-05T18:29:41.723Z,-1.72
2023-02-05T18:32:09.971Z,-1.75
2023-02-05T18:34:36.580Z,-1.79
2023-02-05T18:37:03.172Z,-1.89
2023-02-05T18:39:29.812Z,-1.95
2023-02-05T18:41:57.561Z,-2.02
2023-02-05T18:44:25.700Z,-2.09
2023-02-05T18:46:52.689Z,-2.18
2023-02-05T18:49:19.275Z,-2.27
2023-02-05T18:51:46.053Z,-2.31
2023-02-05T18:54:12.652Z,-2.37
2023-02-05T18:56:39.296Z,-2.44
2023-02-05T18:59:07.889Z,-2.50
2023-02-05T19:01:38.069Z,-2.53
2023-02-05T19:04:08.163Z,-2.69
2023-02-05T19:06:35.253Z,-2.72
2023-02-05T19:09:02.659Z,-2.75
2023-02-05T19:11:30.466Z,-2.82
2023-02-05T19:13:58.701Z,-2.86
2023-02-05T19:16:26.905Z,-2.94
2023-02-05T19:18:53.684Z,-2.95
2023-02-05T19:21:21.821Z,-3.13
2023-02-05T19:23:54.234Z,-3.15
2023-02-05T19:26:24.026Z,-3.26
2023-02-05T19:28:56.811Z,-3.30
2023-02-05T19:31:26.161Z,-3.34
2023-02-05T19:33:52.970Z,-3.39
2023-02-05T19:36:22.633Z,-3.47
2023-02-05T19:38:49.277Z,-3.53
2023-02-05T19:41:18.440Z,-3.52
2023-02-05T19:43:50.883Z,-3.66
2023-02-05T19:46:19.589Z,-3.72
2023-02-05T19:48:46.930Z,-3.78
2023-02-05T19:51:14.859Z,-3.88
2023-02-05T19:53:44.046Z,-3.97
2023-02-05T19:56:17.199Z,-3.99
2023-02-05T19:58:47.632Z,-4.10
2023-02-05T20:01:23.752Z,-4.11
2023-02-05T20:04:17.146Z,-4.14
2023-02-05T20:06:46.109Z,-4.14
2023-02-05T20:09:14.098Z,-4.30
2023-02-05T20:11:42.507Z,-4.39
2023-02-05T20:14:10.491Z,-4.39
2023-02-05T20:16:40.446Z,-4.38
2023-02-05T20:19:09.631Z,-4.45
2023-02-05T20:21:37.192Z,-4.51
2023-02-05T20:24:04.666Z,-4.61
2023-02-05T20:26:31.848Z,-4.62
2023-02-05T20:29:17.051Z,-4.63
2023-02-05T20:31:47.891Z,-4.68
2023-02-05T20:34:21.957Z,-4.70
2023-02-05T20:36:51.448Z,-4.75
2023-02-05T20:39:19.222Z,-4.74
2023-02-05T20:41:47.614Z,-4.77
2023-02-05T20:44:14.720Z,-4.80
2023-02-05T20:46:41.349Z,-4.94
2023-02-05T20:49:09.048Z,-5.00
2023-02-05T20:51:36.536Z,-5.07
2023-02-05T20:54:03.904Z,-5.14
2023-02-05T20:56:31.642Z,-5.21
2023-02-05T20:58:59.647Z,-5.21
2023-02-05T21:01:28.026Z,-5.33
2023-02-05T21:04:00.296Z,-5.45
2023-02-05T21:06:29.904Z,-5.55
2023-02-05T21:08:56.738Z,-5.53
2023-02-05T21:11:24.618Z,-5.51
2023-02-05T21:13:52.003Z,-5.53
2023-02-05T21:16:21.353Z,-5.57
2023-02-05T21:18:49.165Z,-5.66
2023-02-05T21:21:21.871Z,-5.69
2023-02-05T21:23:49.090Z,-5.74
2023-02-05T21:26:21.149Z,-5.80
2023-02-05T21:28:47.884Z,-5.93
2023-02-05T21:31:15.002Z,-5.99
2023-02-05T21:33:41.624Z,-6.04
2023-02-05T21:36:10.793Z,-6.04
2023-02-05T21:38:42.374Z,-6.12
2023-02-05T21:41:17.868Z,-6.11
2023-02-05T21:43:49.646Z,-6.12
2023-02-05T21:46:16.340Z,-6.18
2023-02-05T21:48:46.630Z,-6.21
2023-02-05T21:51:15.147Z,-6.26
2023-02-05T21:53:42.462Z,-6.27
2023-02-05T21:56:11.361Z,-6.30
2023-02-05T21:58:39.502Z,-6.27
2023-02-05T22:01:14.869Z,-6.24
2023-02-05T22:03:42.988Z,-6.25
2023-02-05T22:06:09.620Z,-6.25
2023-02-05T22:08:38.028Z,-6.21
2023-02-05T22:11:06.664Z,-6.30
2023-02-05T22:13:35.241Z,-6.43
2023-02-05T22:16:07.844Z,-6.47
2023-02-05T22:18:35.618Z,-6.52
2023-02-05T22:21:22.809Z,-6.59
2023-02-05T22:23:51.577Z,-6.66
2023-02-05T22:26:20.363Z,-6.71
2023-02-05T22:28:47.244Z,-6.74
2023-02-05T22:31:16.540Z,-6.78
2023-02-05T22:33:45.885Z,-6.83
2023-02-05T22:36:13.915Z,-6.85
2023-02-05T22:38:42.185Z,-6.83
2023-02-05T22:41:14.954Z,-6.83
2023-02-05T22:43:42.151Z,-6.81
2023-02-05T22:46:12.297Z,-6.84
2023-02-05T22:48:40.940Z,-6.85
2023-02-05T22:51:10.636Z,-6.86
2023-02-05T22:53:37.496Z,-6.85
2023-02-05T22:56:10.358Z,-6.86
2023-02-05T22:58:42.134Z,-6.87
2023-02-05T23:01:08.999Z,-6.89
2023-02-05T23:03:36.218Z,-6.93
2023-02-05T23:06:11.516Z,-6.94
2023-02-05T23:08:38.643Z,-6.98
2023-02-05T23:11:10.601Z,-7.03
2023-02-05T23:13:38.557Z,-7.11
2023-02-05T23:16:13.455Z,-7.16
2023-02-05T23:18:41.798Z,-7.19
2023-02-05T23:21:18.760Z,-7.17
2023-02-05T23:23:46.351Z,-7.19
2023-02-05T23:26:19.608Z,-7.20
2023-02-05T23:28:47.443Z,-7.24
2023-02-05T23:31:14.309Z,-7.26
2023-02-05T23:33:41.187Z,-7.34
2023-02-05T23:36:08.967Z,-7.37
2023-02-05T23:38:36.003Z,-7.34
2023-02-05T23:41:03.594Z,-7.34
2023-02-05T23:43:32.788Z,-7.34
2023-02-05T23:45:59.926Z,-7.36
2023-02-05T23:48:26.664Z,-7.41
2023-02-05T23:50:54.998Z,-7.43
2023-02-05T23:53:21.677Z,-7.46
2023-02-05T23:55:49.653Z,-7.47
2023-02-05T23:58:18.148Z,-7.48
